Time,TemperatureF,DewpointF,PressureIn,WindDirection,WindDirectionDegrees,WindSpeedMPH,WindSpeedGustMPH,Humidity,HourlyPrecipIn,Conditions,Clouds,dailyrainin,SoftwareType,DateUTC
2013-06-10 00:00:00,58.8,37.4,29.68,SE,130,2.0,7.0,45,0.00,CLR,,0.00,WeatherDisplay:10.37,2013-06-10 06:00:00,
2013-06-10 00:30:00,57.9,37.2,29.68,SE,132,5.0,12.0,46,0.00,CLR,,0.00,WeatherDisplay:10.37,2013-06-10 06:30:00,
2013-06-10 01:00:00,57.1,37.0,29.67,SE,125,2.0,9.0,47,0.00,CLR,,0.00,WeatherDisplay:10.37,2013-06-10 07:00:00,
2013-06-10 01:30:00,56.6,36.6,29.67,SE,133,3.0,10.0,47,0.00,CLR,,0.00,WeatherDisplay:10.37,2013-06-10 07:30:00,
2013-06-10 02:00:00,55.8,35.9,29.67,ESE,120,3.0,8.0,47,0.00,CLR,,0.00,WeatherDisplay:10.37,2013-06-10 08:00:00,
2013-06-10 02:30:00,54.5,35.7,29.67,ESE,120,2.0,12.0,49,0.00,CLR,,0.00,WeatherDisplay:10.37,2013-06-10 08:30:00,
2013-06-10 03:00:00,54.4,35.1,29.66,ESE,119,3.0,9.0,48,0.00,CLR,,0.00,WeatherDisplay:10.37,2013-06-10 09:00:00,
2013-06-10 03:30:00,54.2,34.4,29.66,ESE,118,5.0,10.0,47,0.00,CLR,,0.00,WeatherDisplay:10.37,2013-06-10 09:30:00,
2013-06-10 04:00:00,54.5,34.7,29.66,ESE,119,0.0,9.0,47,0.00,CLR,,0.00,WeatherDisplay:10.37,2013-06-10 10:00:00,
2013-06-10 04:30:00,52.2,35.5,29.66,ESE,123,0.0,4.0,53,0.00,CLR,,0.00,WeatherDisplay:10.37,2013-06-10 10:30:00,
2013-06-10 05:00:00,50.4,36.1,29.66,ESE,123,1.0,4.0,58,0.00,CLR,,0.00,WeatherDisplay:10.37,2013-06-10 11:00:00,
2013-06-10 05:30:00,49.5,35.7,29.67,ESE,121,0.0,6.0,59,0.00,CLR,,0.00,WeatherDisplay:10.37,2013-06-10 11:30:00,
2013-06-10 06:00:00,48.5,36.1,29.68,ESE,119,2.0,5.0,62,0.00,CLR,,0.00,WeatherDisplay:10.37,2013-06-10 12:00:00,
2013-06-10 06:30:00,49.2,37.1,29.68,SE,131,1.0,6.0,63,0.00,CLR,,0.00,WeatherDisplay:10.37,2013-06-10 12:30:00,
2013-06-10 07:00:00,54.2,39.8,29.67,ESE,123,1.0,6.0,58,0.00,CLR,,0.00,WeatherDisplay:10.37,2013-06-10 13:00:00,
2013-06-10 07:30:00,57.9,41.8,29.67,SE,136,0.0,5.0,55,0.00,CLR,,0.00,WeatherDisplay:10.37,2013-06-10 13:30:00,
2013-06-10 08:00:00,61.9,40.9,29.67,NNW,334,0.0,5.0,46,0.00,CLR,,0.00,WeatherDisplay:10.37,2013-06-10 14:00:00,
2013-06-10 08:30:00,63.4,41.1,29.68,WSW,256,1.0,5.0,44,0.00,CLR,,0.00,WeatherDisplay:10.37,2013-06-10 14:30:00,
2013-06-10 09:00:00,67.3,42.8,29.68,WNW,294,0.0,5.0,41,0.00,CLR,,0.00,WeatherDisplay:10.37,2013-06-10 15:00:00,
2013-06-10 09:30:00,69.7,42.3,29.69,WNW,295,0.0,6.0,37,0.00,CLR,,0.00,WeatherDisplay:10.37,2013-06-10 15:30:00,
2013-06-10 10:00:00,72.5,40.1,29.69,WNW,295,0.0,4.0,31,0.00,CLR,,0.00,WeatherDisplay:10.37,2013-06-10 16:00:00,
2013-06-10 10:30:00,76.6,44.5,29.68,NW,304,0.0,3.0,32,0.00,CLR,,0.00,WeatherDisplay:10.37,2013-06-10 16:30:00,
2013-06-10 11:00:00,79.2,51.4,29.66,East,86,0.0,4.0,38,0.00,CLR,,0.00,WeatherDisplay:10.37,2013-06-10 17:00:00,
2013-06-10 11:30:00,84.2,50.3,29.65,ESE,102,0.0,1.0,31,0.00,CLR,,0.00,WeatherDisplay:10.37,2013-06-10 17:30:00,
2013-06-10 12:00:00,86.9,47.8,29.64,South,190,3.0,5.0,26,0.00,CLR,,0.00,WeatherDisplay:10.37,2013-06-10 18:00:00,
2013-06-10 12:30:00,89.7,49.2,29.62,SSW,209,0.0,5.0,25,0.00,CLR,,0.00,WeatherDisplay:10.37,2013-06-10 18:30:00,
2013-06-10 13:00:00,91.5,43.4,29.61,WNW,296,3.0,10.0,19,0.00,CLR,,0.00,WeatherDisplay:10.37,2013-06-10 19:00:00,
2013-06-10 13:30:00,91.2,44.5,29.60,West,273,0.0,12.0,20,0.00,CLR,,0.00,WeatherDisplay:10.37,2013-06-10 19:30:00,
2013-06-10 14:00:00,90.8,40.0,29.60,WNW,303,2.0,21.0,17,0.00,CLR,,0.00,WeatherDisplay:10.37,2013-06-10 20:00:00,
2013-06-10 14:30:00,91.2,41.8,29.58,West,272,1.0,22.0,18,0.00,CLR,,0.00,WeatherDisplay:10.37,2013-06-10 20:30:00,
2013-06-10 15:00:00,93.1,46.0,29.57,SW,232,2.0,14.0,20,0.00,CLR,,0.00,WeatherDisplay:10.37,2013-06-10 21:00:00,
2013-06-10 15:30:00,93.7,40.7,29.56,SW,229,1.0,21.0,16,0.00,CLR,,0.00,WeatherDisplay:10.37,2013-06-10 21:30:00,
2013-06-10 16:00:00,91.1,44.4,29.55,WSW,248,3.0,12.0,20,0.00,CLR,,0.00,WeatherDisplay:10.37,2013-06-10 22:00:00,
2013-06-10 16:30:00,92.4,41.2,29.54,WSW,250,6.0,14.0,17,0.00,CLR,,0.00,WeatherDisplay:10.37,2013-06-10 22:30:00,
2013-06-10 17:00:00,93.6,42.2,29.52,WSW,253,8.0,16.0,17,0.00,CLR,,0.00,WeatherDisplay:10.37,2013-06-10 23:00:00,
2013-06-10 17:30:00,90.1,39.4,29.52,SSW,212,3.0,15.0,17,0.00,CLR,,0.00,WeatherDisplay:10.37,2013-06-10 23:30:00,
2013-06-10 18:00:00,91.7,37.5,29.52,SSW,210,8.0,22.0,15,0.00,CLR,,0.00,WeatherDisplay:10.37,2013-06-11 00:00:00,
2013-06-10 18:30:00,90.7,39.9,29.51,WSW,251,5.0,16.0,17,0.00,CLR,,0.00,WeatherDisplay:10.37,2013-06-11 00:30:00,
2013-06-10 19:00:00,87.9,37.6,29.51,SW,222,5.0,18.0,17,0.00,CLR,,0.00,WeatherDisplay:10.37,2013-06-11 01:00:00,
2013-06-10 19:30:00,86.2,36.3,29.52,SSW,213,3.0,15.0,17,0.00,CLR,,0.00,WeatherDisplay:10.37,2013-06-11 01:30:00,
2013-06-10 20:00:00,83.4,34.0,29.53,SSW,208,1.0,13.0,17,0.00,CLR,,0.00,WeatherDisplay:10.37,2013-06-11 02:00:00,
2013-06-10 20:30:00,79.7,36.3,29.54,South,170,5.0,12.0,21,0.00,CLR,,0.00,WeatherDisplay:10.37,2013-06-11 02:30:00,
2013-06-10 21:00:00,75.6,35.2,29.55,WSW,238,0.0,10.0,23,0.00,CLR,,0.00,WeatherDisplay:10.37,2013-06-11 03:00:00,
2013-06-10 21:30:00,76.2,30.9,29.56,WSW,239,0.0,3.0,19,0.00,CLR,,0.00,WeatherDisplay:10.37,2013-06-11 03:30:00,
2013-06-10 22:00:00,72.0,33.2,29.58,SE,144,1.0,5.0,24,0.00,CLR,,0.00,WeatherDisplay:10.37,2013-06-11 04:00:00,
2013-06-10 22:30:00,66.8,34.3,29.59,ESE,121,0.0,7.0,30,0.00,CLR,,0.00,WeatherDisplay:10.37,2013-06-11 04:30:00,
2013-06-10 23:00:00,63.8,34.9,29.59,SE,130,3.0,9.0,34,0.00,CLR,,0.00,WeatherDisplay:10.37,2013-06-11 05:00:00,
2013-06-10 23:30:00,61.6,34.4,29.59,ESE,122,1.0,7.0,36,0.00,CLR,,0.00,WeatherDisplay:10.37,2013-06-11 05:30:00,